Time;durP1;ratioP1;P1;durP2;ratioP2;P2;SDS_P1;SDS_P2;PMS_P1;PMS_P2;Temp;Humidity;BMP_temperature;BMP_pressure;BME280_temperature;BME280_humidity;BME280_pressure;Samples;Min_cycle;Max_cycle;Signal;HPM_P1;HPM_P2
2023/05/25 00:00:14;;;;;;;19.63;7.95;;;;;;;;;;4959526;28;20263;-74
2023/05/25 00:02:41;;;;;;;20.52;8.02;;;;;;;;;;4961130;28;20530;-74
2023/05/25 00:05:09;;;;;;;22.65;8.38;;;;;;;;;;4960693;28;20030;-74
2023/05/25 00:07:35;;;;;;;25.25;8.57;;;;;;;;;;4961212;28;20499;-75
2023/05/25 00:10:00;;;;;;;23.17;8.10;;;;;;;;;;4961589;28;20197;-74
2023/05/25 00:12:27;;;;;;;16.23;7.32;;;;;;;;;;4960969;28;20633;-74
2023/05/25 00:14:55;;;;;;;20.50;8.20;;;;;;;;;;4959916;28;20023;-75
2023/05/25 00:17:20;;;;;;;22.08;7.97;;;;;;;;;;4961434;28;20031;-75
2023/05/25 00:19:46;;;;;;;19.00;8.13;;;;;;;;;;4963684;28;20106;-74
2023/05/25 00:22:11;;;;;;;26.02;8.27;;;;;;;;;;4961298;28;20023;-74
2023/05/25 00:24:39;;;;;;;20.75;8.13;;;;;;;;;;4943891;28;20027;-74
2023/05/25 00:27:06;;;;;;;16.45;8.32;;;;;;;;;;4962682;28;20657;-74
2023/05/25 00:29:31;;;;;;;18.63;7.45;;;;;;;;;;4961367;28;20055;-74
2023/05/25 00:31:56;;;;;;;17.85;8.05;;;;;;;;;;4961622;28;20447;-74
2023/05/25 00:34:21;;;;;;;23.60;8.93;;;;;;;;;;4962533;28;20031;-74
2023/05/25 00:36:47;;;;;;;20.80;8.93;;;;;;;;;;4964397;28;20215;-75
2023/05/25 00:39:15;;;;;;;21.95;8.40;;;;;;;;;;5063449;28;20044;-75
2023/05/25 00:41:43;;;;;;;16.23;8.32;;;;;;;;;;5061052;28;20032;-74
2023/05/25 00:44:08;;;;;;;20.17;8.55;;;;;;;;;;5062681;28;20552;-74
2023/05/25 00:46:36;;;;;;;19.63;8.25;;;;;;;;;;5063113;28;20116;-75
2023/05/25 00:49:01;;;;;;;18.92;8.50;;;;;;;;;;5062134;28;20037;-74
2023/05/25 00:51:28;;;;;;;29.60;9.50;;;;;;;;;;5062662;28;20082;-74
2023/05/25 00:53:53;;;;;;;21.60;8.38;;;;;;;;;;5061074;28;20028;-74
2023/05/25 00:56:22;;;;;;;22.10;8.55;;;;;;;;;;5060122;28;20020;-75
2023/05/25 00:58:50;;;;;;;18.52;8.75;;;;;;;;;;5060937;28;20024;-74
2023/05/25 01:01:17;;;;;;;22.00;8.50;;;;;;;;;;5042736;28;20039;-74
2023/05/25 01:03:45;;;;;;;19.02;8.52;;;;;;;;;;5061872;28;20029;-74
2023/05/25 01:06:12;;;;;;;18.95;8.63;;;;;;;;;;5059460;28;20125;-75
2023/05/25 01:08:39;;;;;;;23.83;8.90;;;;;;;;;;5061666;28;21104;-75
2023/05/25 01:11:05;;;;;;;26.17;9.60;;;;;;;;;;5061000;28;20052;-74
2023/05/25 01:13:30;;;;;;;21.30;9.00;;;;;;;;;;5061940;28;20481;-76
2023/05/25 01:15:56;;;;;;;20.05;8.55;;;;;;;;;;5059046;28;20108;-74
2023/05/25 01:18:22;;;;;;;22.80;9.80;;;;;;;;;;5059453;28;20160;-73
2023/05/25 01:21:00;;;;;;;30.35;9.98;;;;;;;;;;5060543;28;20024;-74
2023/05/25 01:23:31;;;;;;;23.77;9.77;;;;;;;;;;5061324;28;20040;-78
2023/05/25 01:25:58;;;;;;;23.25;9.93;;;;;;;;;;5061400;28;20017;-74
2023/05/25 01:28:34;;;;;;;22.42;9.32;;;;;;;;;;5059272;28;20036;-73
2023/05/25 01:30:59;;;;;;;23.88;9.50;;;;;;;;;;5061038;28;20492;-74
2023/05/25 01:33:25;;;;;;;17.80;10.13;;;;;;;;;;5061569;28;20100;-74
2023/05/25 01:35:51;;;;;;;17.05;9.23;;;;;;;;;;5064497;28;20059;-74
2023/05/25 01:38:17;;;;;;;22.42;10.30;;;;;;;;;;4999678;28;20095;-75
2023/05/25 01:40:42;;;;;;;19.13;9.82;;;;;;;;;;4961335;28;20023;-74
2023/05/25 01:43:07;;;;;;;19.85;9.75;;;;;;;;;;4963422;28;20261;-75
2023/05/25 01:45:33;;;;;;;21.92;10.15;;;;;;;;;;4962337;28;20018;-74
2023/05/25 01:48:07;;;;;;;24.15;11.35;;;;;;;;;;4963104;28;20027;-74
2023/05/25 01:50:35;;;;;;;22.33;10.02;;;;;;;;;;4962343;28;20388;-74
2023/05/25 01:53:01;;;;;;;25.55;10.70;;;;;;;;;;4962551;28;20034;-74
2023/05/25 01:55:27;;;;;;;24.90;10.45;;;;;;;;;;4960645;28;20472;-74
2023/05/25 01:57:56;;;;;;;23.27;10.50;;;;;;;;;;4962752;28;20557;-74
2023/05/25 02:00:23;;;;;;;20.98;10.88;;;;;;;;;;4963147;28;20487;-76
2023/05/25 02:02:49;;;;;;;23.55;9.52;;;;;;;;;;4961035;28;20057;-73
2023/05/25 02:05:14;;;;;;;26.05;10.27;;;;;;;;;;4944602;28;20031;-74
2023/05/25 02:07:40;;;;;;;17.92;9.57;;;;;;;;;;4960392;28;20257;-74
2023/05/25 02:10:05;;;;;;;22.40;10.10;;;;;;;;;;4960388;28;20055;-74
2023/05/25 02:12:32;;;;;;;24.17;10.10;;;;;;;;;;4961835;28;20051;-73
2023/05/25 02:14:57;;;;;;;23.55;10.25;;;;;;;;;;4960618;28;20039;-74
2023/05/25 02:17:26;;;;;;;23.38;9.25;;;;;;;;;;4943818;28;20038;-74
2023/05/25 02:19:53;;;;;;;22.50;9.95;;;;;;;;;;4960219;28;20399;-73
2023/05/25 02:22:21;;;;;;;24.02;10.13;;;;;;;;;;4960942;28;20487;-74
2023/05/25 02:24:46;;;;;;;20.60;9.50;;;;;;;;;;4960255;28;20042;-74
2023/05/25 02:27:12;;;;;;;18.88;8.82;;;;;;;;;;4961918;28;20110;-74
2023/05/25 02:29:42;;;;;;;23.20;9.60;;;;;;;;;;4944396;28;20045;-74
2023/05/25 02:32:07;;;;;;;25.52;9.70;;;;;;;;;;4960262;28;20180;-74
2023/05/25 02:34:35;;;;;;;23.33;10.07;;;;;;;;;;4962032;28;20213;-75
2023/05/25 02:37:03;;;;;;;20.67;9.13;;;;;;;;;;4974095;28;20044;-75
2023/05/25 02:39:28;;;;;;;18.42;9.57;;;;;;;;;;5061791;28;20033;-75
2023/05/25 02:41:53;;;;;;;23.85;9.50;;;;;;;;;;5061785;28;20029;-75
2023/05/25 02:44:19;;;;;;;19.30;9.32;;;;;;;;;;5063597;28;20477;-75
2023/05/25 02:46:44;;;;;;;23.65;10.55;;;;;;;;;;5062800;28;20109;-74
2023/05/25 02:49:10;;;;;;;24.33;9.88;;;;;;;;;;5062227;28;20037;-74
2023/05/25 02:51:35;;;;;;;23.48;10.30;;;;;;;;;;5060959;28;20560;-73
2023/05/25 02:54:01;;;;;;;25.45;11.23;;;;;;;;;;5061074;28;20119;-75
2023/05/25 02:56:27;;;;;;;20.05;9.73;;;;;;;;;;5062549;28;20466;-74
2023/05/25 02:58:52;;;;;;;18.10;9.52;;;;;;;;;;5063429;28;20029;-75
2023/05/25 03:01:17;;;;;;;24.10;10.25;;;;;;;;;;5062502;28;20397;-71
2023/05/25 03:03:46;;;;;;;21.33;9.43;;;;;;;;;;5063264;28;20021;-74
2023/05/25 03:06:12;;;;;;;20.70;10.77;;;;;;;;;;5061100;28;20031;-74
2023/05/25 03:08:38;;;;;;;21.25;9.90;;;;;;;;;;5062978;28;20031;-74
2023/05/25 03:11:03;;;;;;;23.40;10.07;;;;;;;;;;5062606;28;20032;-74
2023/05/25 03:13:29;;;;;;;21.65;10.20;;;;;;;;;;5063423;28;20112;-74
2023/05/25 03:15:54;;;;;;;19.55;10.35;;;;;;;;;;5044023;28;20036;-74
2023/05/25 03:18:20;;;;;;;23.88;10.25;;;;;;;;;;5062802;28;20035;-75
2023/05/25 03:20:45;;;;;;;21.70;9.80;;;;;;;;;;5062185;28;20020;-75
2023/05/25 03:23:10;;;;;;;22.98;10.77;;;;;;;;;;5062892;28;20206;-74
2023/05/25 03:25:36;;;;;;;20.42;10.77;;;;;;;;;;5060857;28;20123;-75
2023/05/25 03:28:01;;;;;;;25.63;11.02;;;;;;;;;;5060736;28;20025;-74
2023/05/25 03:30:26;;;;;;;22.05;10.45;;;;;;;;;;5062420;28;20424;-75
2023/05/25 03:32:54;;;;;;;23.55;10.80;;;;;;;;;;5062245;28;20508;-74
2023/05/25 03:35:19;;;;;;;25.38;10.45;;;;;;;;;;5061943;28;20389;-75
2023/05/25 03:37:45;;;;;;;22.67;10.65;;;;;;;;;;5017414;28;20318;-74
2023/05/25 03:40:10;;;;;;;24.60;10.50;;;;;;;;;;4959326;28;20050;-75
2023/05/25 03:42:36;;;;;;;29.52;10.55;;;;;;;;;;4960660;28;20038;-75
2023/05/25 03:45:01;;;;;;;26.88;10.52;;;;;;;;;;4960700;28;20061;-75
2023/05/25 03:47:29;;;;;;;18.92;9.65;;;;;;;;;;4960647;28;20110;-75
2023/05/25 03:49:54;;;;;;;21.35;10.27;;;;;;;;;;4942746;28;20092;-75
2023/05/25 03:52:20;;;;;;;23.20;10.70;;;;;;;;;;4960761;28;20039;-76
2023/05/25 03:54:45;;;;;;;19.90;9.95;;;;;;;;;;4960964;28;20027;-75
2023/05/25 03:57:12;;;;;;;23.48;9.93;;;;;;;;;;4960331;28;20225;-75
2023/05/25 03:59:38;;;;;;;22.70;10.82;;;;;;;;;;4959462;28;20038;-75
2023/05/25 04:02:03;;;;;;;20.65;9.70;;;;;;;;;;4960988;28;20035;-76
2023/05/25 04:04:28;;;;;;;22.52;9.02;;;;;;;;;;4958928;28;20091;-76
2023/05/25 04:06:54;;;;;;;20.95;10.70;;;;;;;;;;4958743;28;20230;-75
2023/05/25 04:09:19;;;;;;;17.75;10.60;;;;;;;;;;4958587;28;20050;-76
2023/05/25 04:11:45;;;;;;;22.02;10.57;;;;;;;;;;4960717;28;20111;-75
2023/05/25 04:14:10;;;;;;;28.35;10.20;;;;;;;;;;4960848;28;20038;-75
2023/05/25 04:16:35;;;;;;;20.90;9.75;;;;;;;;;;4960531;28;20038;-71
2023/05/25 04:19:01;;;;;;;23.25;9.70;;;;;;;;;;4960746;28;20172;-75
2023/05/25 04:21:26;;;;;;;20.45;9.77;;;;;;;;;;4960367;28;20114;-75
2023/05/25 04:23:52;;;;;;;19.13;9.57;;;;;;;;;;4960602;28;20031;-74
2023/05/25 04:26:17;;;;;;;21.50;9.77;;;;;;;;;;4960770;28;20081;-75
2023/05/25 04:28:42;;;;;;;23.02;10.02;;;;;;;;;;4959069;28;20027;-75
2023/05/25 04:31:08;;;;;;;22.98;10.75;;;;;;;;;;4959210;28;20097;-75
2023/05/25 04:33:37;;;;;;;25.45;11.05;;;;;;;;;;4960321;28;20023;-74
2023/05/25 04:36:09;;;;;;;21.35;9.98;;;;;;;;;;4960053;28;20027;-75
2023/05/25 04:38:37;;;;;;;25.42;10.35;;;;;;;;;;5036331;28;20016;-75
2023/05/25 04:41:02;;;;;;;23.33;10.30;;;;;;;;;;5042555;28;20108;-74
2023/05/25 04:43:28;;;;;;;19.00;9.38;;;;;;;;;;5061920;28;20170;-75
2023/05/25 04:45:58;;;;;;;20.70;10.68;;;;;;;;;;5061341;28;20542;-76
2023/05/25 04:48:23;;;;;;;20.10;10.23;;;;;;;;;;5061365;28;20100;-76
2023/05/25 04:50:49;;;;;;;22.65;10.02;;;;;;;;;;5061539;28;20166;-75
2023/05/25 04:53:14;;;;;;;17.67;9.73;;;;;;;;;;5061264;28;20481;-75
2023/05/25 04:55:40;;;;;;;25.02;9.52;;;;;;;;;;5059539;28;20028;-76
2023/05/25 04:58:06;;;;;;;21.73;9.23;;;;;;;;;;5061196;28;20035;-76
2023/05/25 05:00:33;;;;;;;15.77;8.80;;;;;;;;;;5061313;28;20021;-76
2023/05/25 05:02:59;;;;;;;17.83;9.52;;;;;;;;;;5059142;28;20152;-76
2023/05/25 05:05:24;;;;;;;17.02;8.38;;;;;;;;;;5061693;28;20197;-77
2023/05/25 05:07:52;;;;;;;21.55;8.48;;;;;;;;;;5059972;28;20029;-76
2023/05/25 05:10:18;;;;;;;19.17;8.98;;;;;;;;;;5065195;28;20048;-76
2023/05/25 05:12:43;;;;;;;18.38;8.00;;;;;;;;;;5065835;28;20042;-76
2023/05/25 05:15:09;;;;;;;14.85;7.90;;;;;;;;;;5065648;28;20108;-76
2023/05/25 05:17:35;;;;;;;17.98;7.38;;;;;;;;;;5063268;28;20036;-76
2023/05/25 05:20:00;;;;;;;15.88;7.65;;;;;;;;;;5063970;28;20086;-76
2023/05/25 05:22:26;;;;;;;15.63;7.28;;;;;;;;;;5065142;28;20086;-76
2023/05/25 05:24:53;;;;;;;15.80;7.13;;;;;;;;;;5065679;28;20028;-76
2023/05/25 05:27:19;;;;;;;16.05;6.68;;;;;;;;;;5046905;28;20323;-75
2023/05/25 05:29:44;;;;;;;11.00;6.20;;;;;;;;;;5065126;28;20037;-76
2023/05/25 05:32:10;;;;;;;13.05;5.82;;;;;;;;;;5064811;28;20430;-76
2023/05/25 05:34:36;;;;;;;12.82;5.32;;;;;;;;;;5063477;28;20036;-75
2023/05/25 05:37:01;;;;;;;13.80;5.45;;;;;;;;;;5052698;28;20025;-75
2023/05/25 05:39:29;;;;;;;11.85;4.88;;;;;;;;;;4962169;28;20019;-75
2023/05/25 05:41:54;;;;;;;15.63;5.07;;;;;;;;;;4962519;28;20437;-75
2023/05/25 05:44:21;;;;;;;10.93;4.40;;;;;;;;;;4965087;28;20027;-75
2023/05/25 05:46:46;;;;;;;11.32;5.07;;;;;;;;;;4963641;28;20026;-76
2023/05/25 05:49:11;;;;;;;12.32;4.80;;;;;;;;;;4963389;28;20482;-76
2023/05/25 05:51:37;;;;;;;13.60;4.63;;;;;;;;;;4961482;28;20023;-76
2023/05/25 05:54:02;;;;;;;10.90;4.50;;;;;;;;;;4963570;28;20070;-77
2023/05/25 05:56:27;;;;;;;10.45;4.80;;;;;;;;;;4944448;28;20129;-75
2023/05/25 05:58:53;;;;;;;12.68;4.45;;;;;;;;;;4961432;28;20086;-76
2023/05/25 06:01:21;;;;;;;11.73;4.18;;;;;;;;;;4961725;28;20122;-75
2023/05/25 06:03:49;;;;;;;11.50;4.63;;;;;;;;;;4961582;28;20038;-75
2023/05/25 06:06:15;;;;;;;8.90;4.05;;;;;;;;;;4960701;28;20061;-75
2023/05/25 06:08:41;;;;;;;11.38;3.97;;;;;;;;;;4962783;28;20038;-76
2023/05/25 06:11:06;;;;;;;9.48;3.92;;;;;;;;;;4944507;28;20039;-76
2023/05/25 06:13:34;;;;;;;11.38;3.80;;;;;;;;;;4962698;28;20058;-75
2023/05/25 06:15:59;;;;;;;10.15;4.40;;;;;;;;;;4961796;28;20027;-75
2023/05/25 06:18:24;;;;;;;10.25;3.97;;;;;;;;;;4962686;28;20034;-75
2023/05/25 06:20:52;;;;;;;12.77;4.10;;;;;;;;;;4961366;28;20099;-76
2023/05/25 06:23:17;;;;;;;12.68;3.78;;;;;;;;;;4962525;28;20098;-77
2023/05/25 06:25:46;;;;;;;9.90;4.13;;;;;;;;;;4962361;28;20129;-77
2023/05/25 06:28:12;;;;;;;9.70;4.30;;;;;;;;;;4958901;28;20487;-76
2023/05/25 06:30:37;;;;;;;12.23;4.60;;;;;;;;;;4961991;28;20105;-77
2023/05/25 06:33:05;;;;;;;13.90;4.13;;;;;;;;;;4960127;28;20612;-75
2023/05/25 06:35:30;;;;;;;10.50;4.28;;;;;;;;;;4962762;28;20055;-76
2023/05/25 06:37:58;;;;;;;11.63;4.55;;;;;;;;;;5013999;28;20052;-76
2023/05/25 06:40:23;;;;;;;12.93;4.75;;;;;;;;;;5065211;28;20496;-78
2023/05/25 06:42:48;;;;;;;12.88;4.93;;;;;;;;;;5042609;28;20031;-77
2023/05/25 06:45:14;;;;;;;11.18;4.38;;;;;;;;;;4942996;28;20027;-78
2023/05/25 06:47:41;;;;;;;12.70;5.10;;;;;;;;;;4942463;28;20101;-77
2023/05/25 06:50:07;;;;;;;12.02;4.70;;;;;;;;;;4943066;28;20042;-76
2023/05/25 06:52:32;;;;;;;9.30;4.13;;;;;;;;;;4942626;28;20034;-77
2023/05/25 06:54:57;;;;;;;13.95;4.82;;;;;;;;;;4940626;28;20068;-77
2023/05/25 06:57:25;;;;;;;10.70;4.70;;;;;;;;;;4941975;28;20031;-76
2023/05/25 06:59:50;;;;;;;11.85;4.80;;;;;;;;;;4942375;28;20393;-77
2023/05/25 07:02:16;;;;;;;10.50;4.72;;;;;;;;;;4956522;28;20039;-76
2023/05/25 07:04:41;;;;;;;12.80;4.75;;;;;;;;;;4942116;28;20038;-77
2023/05/25 07:07:08;;;;;;;9.05;4.28;;;;;;;;;;4956331;28;20039;-76
2023/05/25 07:09:34;;;;;;;10.35;4.50;;;;;;;;;;4940453;28;20031;-77
2023/05/25 07:12:00;;;;;;;19.27;4.85;;;;;;;;;;4972224;28;20196;-79
2023/05/25 07:14:25;;;;;;;9.40;4.90;;;;;;;;;;4943101;28;20028;-77
2023/05/25 07:16:52;;;;;;;11.38;5.60;;;;;;;;;;4942147;28;20031;-76
2023/05/25 07:19:20;;;;;;;12.80;5.25;;;;;;;;;;4941587;28;20487;-75
2023/05/25 07:21:45;;;;;;;10.93;5.40;;;;;;;;;;4942356;28;20057;-78
2023/05/25 07:24:11;;;;;;;11.45;5.18;;;;;;;;;;4942396;28;20036;-75
2023/05/25 07:26:36;;;;;;;10.82;4.65;;;;;;;;;;4941829;28;20023;-76
2023/05/25 07:29:01;;;;;;;11.07;4.65;;;;;;;;;;4941970;28;20024;-76
2023/05/25 07:31:27;;;;;;;6.53;3.90;;;;;;;;;;4941049;28;20444;-77
2023/05/25 07:33:54;;;;;;;11.38;4.28;;;;;;;;;;4940293;28;20023;-77
2023/05/25 07:36:19;;;;;;;6.75;4.35;;;;;;;;;;4941904;28;20042;-75
2023/05/25 07:38:45;;;;;;;10.05;3.90;;;;;;;;;;5075556;28;20025;-76
2023/05/25 07:41:12;;;;;;;9.02;4.40;;;;;;;;;;5062025;28;20035;-76
2023/05/25 07:43:37;;;;;;;9.82;3.88;;;;;;;;;;5062351;28;20028;-76
2023/05/25 07:46:03;;;;;;;8.90;3.80;;;;;;;;;;5061488;28;20043;-76
2023/05/25 07:48:30;;;;;;;6.93;3.50;;;;;;;;;;5060945;28;20031;-77
2023/05/25 07:50:58;;;;;;;10.07;3.58;;;;;;;;;;4948275;28;20058;-78
2023/05/25 07:53:23;;;;;;;7.07;3.30;;;;;;;;;;4957684;28;20035;-78
2023/05/25 07:55:49;;;;;;;8.00;3.63;;;;;;;;;;4962399;28;20029;-76
2023/05/25 07:58:14;;;;;;;10.07;3.80;;;;;;;;;;4963814;28;20027;-76
2023/05/25 08:00:39;;;;;;;10.10;4.07;;;;;;;;;;4961016;28;20023;-76
2023/05/25 08:03:05;;;;;;;9.68;4.18;;;;;;;;;;4959886;28;20491;-77
2023/05/25 08:05:32;;;;;;;11.90;4.22;;;;;;;;;;4961044;28;20345;-76
2023/05/25 08:07:58;;;;;;;9.38;4.28;;;;;;;;;;4958873;28;20303;-76
2023/05/25 08:10:30;;;;;;;11.70;4.72;;;;;;;;;;4960615;28;20046;-76
2023/05/25 08:12:55;;;;;;;9.90;4.33;;;;;;;;;;4959174;28;20106;-78
2023/05/25 08:15:21;;;;;;;10.15;4.30;;;;;;;;;;4959410;28;20121;-78
2023/05/25 08:17:49;;;;;;;10.43;4.22;;;;;;;;;;4960249;28;20042;-76
2023/05/25 08:20:15;;;;;;;10.48;4.15;;;;;;;;;;4961020;28;20037;-77
2023/05/25 08:22:40;;;;;;;10.38;4.80;;;;;;;;;;4943052;28;20027;-76
2023/05/25 08:25:06;;;;;;;11.20;4.30;;;;;;;;;;4959807;28;20046;-76
2023/05/25 08:27:32;;;;;;;11.75;4.50;;;;;;;;;;4960866;28;20076;-77
2023/05/25 08:29:57;;;;;;;8.68;4.35;;;;;;;;;;4959094;28;20239;-76
2023/05/25 08:32:22;;;;;;;8.05;4.05;;;;;;;;;;4961117;28;20403;-76
2023/05/25 08:34:48;;;;;;;12.93;3.97;;;;;;;;;;4960928;28;20085;-77
2023/05/25 08:37:13;;;;;;;12.10;4.18;;;;;;;;;;4981141;28;20078;-76
2023/05/25 08:39:41;;;;;;;10.00;4.13;;;;;;;;;;5061764;28;20104;-77
2023/05/25 08:42:06;;;;;;;8.68;3.83;;;;;;;;;;5048885;28;20484;-77
2023/05/25 08:44:34;;;;;;;12.30;4.18;;;;;;;;;;4959480;28;20042;-77
2023/05/25 08:47:04;;;;;;;9.73;3.70;;;;;;;;;;4958984;28;20402;-77
2023/05/25 08:49:31;;;;;;;9.77;3.92;;;;;;;;;;4958956;28;20038;-77
2023/05/25 08:51:57;;;;;;;8.07;3.78;;;;;;;;;;4992129;28;20479;-77
2023/05/25 08:54:31;;;;;;;9.07;3.50;;;;;;;;;;4991417;28;20088;-78
2023/05/25 08:57:03;;;;;;;9.43;3.50;;;;;;;;;;4960977;28;20027;-76
2023/05/25 08:59:28;;;;;;;11.43;4.20;;;;;;;;;;4955912;28;20453;-77
2023/05/25 09:02:17;;;;;;;11.35;3.80;;;;;;;;;;4941042;28;20158;-78
2023/05/25 09:04:42;;;;;;;12.35;4.15;;;;;;;;;;4943302;28;20042;-77
2023/05/25 09:07:08;;;;;;;11.93;4.30;;;;;;;;;;4959254;28;20027;-76
2023/05/25 09:09:35;;;;;;;16.40;4.88;;;;;;;;;;4960067;28;20046;-78
2023/05/25 09:12:01;;;;;;;14.90;5.30;;;;;;;;;;4960070;28;20046;-78
2023/05/25 09:14:27;;;;;;;15.25;5.45;;;;;;;;;;4960401;28;20031;-77
2023/05/25 09:16:52;;;;;;;29.00;6.18;;;;;;;;;;4956038;28;20292;-72
2023/05/25 09:19:17;;;;;;;27.38;6.30;;;;;;;;;;4958983;28;20035;-76
2023/05/25 09:21:43;;;;;;;20.00;5.18;;;;;;;;;;4962215;28;20112;-78
2023/05/25 09:24:08;;;;;;;11.85;4.65;;;;;;;;;;4958666;28;20080;-77
2023/05/25 09:26:34;;;;;;;11.20;4.60;;;;;;;;;;4960040;28;20027;-77
2023/05/25 09:28:59;;;;;;;16.23;4.90;;;;;;;;;;4957261;28;20031;-79
2023/05/25 09:31:25;;;;;;;13.48;4.38;;;;;;;;;;4953733;28;20112;-78
2023/05/25 09:33:54;;;;;;;11.93;4.15;;;;;;;;;;4940014;28;20070;-77
2023/05/25 09:36:21;;;;;;;16.08;4.80;;;;;;;;;;4959648;28;20150;-76
2023/05/25 09:38:47;;;;;;;13.30;4.47;;;;;;;;;;4964313;28;20046;-77
2023/05/25 09:41:15;;;;;;;12.15;4.70;;;;;;;;;;4947658;28;20031;-77
2023/05/25 09:43:42;;;;;;;8.35;4.28;;;;;;;;;;4954644;28;20027;-80
2023/05/25 09:46:10;;;;;;;14.27;4.40;;;;;;;;;;4944326;28;20050;-78
2023/05/25 09:48:36;;;;;;;10.40;3.88;;;;;;;;;;4945905;28;20024;-79
2023/05/25 09:51:02;;;;;;;13.60;4.18;;;;;;;;;;4953087;28;20126;-78
2023/05/25 09:53:28;;;;;;;10.85;3.97;;;;;;;;;;4959030;28;20130;-77
2023/05/25 09:55:53;;;;;;;14.55;4.22;;;;;;;;;;4941520;28;20082;-77
2023/05/25 09:58:24;;;;;;;11.85;3.60;;;;;;;;;;4943301;28;20124;-78
2023/05/25 10:00:53;;;;;;;12.38;3.95;;;;;;;;;;4943613;28;20027;-77
2023/05/25 10:03:20;;;;;;;13.77;3.53;;;;;;;;;;4942004;28;20035;-77
2023/05/25 10:05:46;;;;;;;8.75;3.17;;;;;;;;;;4942324;28;20035;-77
2023/05/25 10:08:11;;;;;;;8.82;3.30;;;;;;;;;;4973712;28;20081;-76
2023/05/25 10:10:38;;;;;;;8.75;3.00;;;;;;;;;;4942610;28;20046;-77
2023/05/25 10:13:06;;;;;;;15.55;3.17;;;;;;;;;;4941462;28;20066;-77
2023/05/25 10:15:31;;;;;;;10.38;3.08;;;;;;;;;;4944201;28;20599;-77
2023/05/25 10:17:57;;;;;;;11.13;3.00;;;;;;;;;;4943595;28;20032;-78
2023/05/25 10:20:23;;;;;;;9.23;2.72;;;;;;;;;;4943624;28;20039;-77
2023/05/25 10:23:07;;;;;;;9.02;2.67;;;;;;;;;;4942928;28;20027;-77
2023/05/25 10:25:42;;;;;;;12.60;3.47;;;;;;;;;;4943507;28;20046;-78
2023/05/25 10:28:26;;;;;;;14.15;3.63;;;;;;;;;;4943015;28;20031;-78
2023/05/25 10:30:52;;;;;;;11.70;3.30;;;;;;;;;;4957709;28;20043;-78
2023/05/25 10:33:19;;;;;;;13.48;3.38;;;;;;;;;;4939088;28;20027;-78
2023/05/25 10:35:45;;;;;;;11.57;3.15;;;;;;;;;;4943114;28;20027;-78
2023/05/25 10:38:11;;;;;;;10.98;3.35;;;;;;;;;;5015850;28;20029;-79
2023/05/25 10:40:37;;;;;;;11.43;3.42;;;;;;;;;;5063044;28;20098;-80
2023/05/25 10:43:03;;;;;;;11.75;3.30;;;;;;;;;;5061562;28;20117;-80
2023/05/25 10:45:28;;;;;;;8.75;2.78;;;;;;;;;;5061877;28;20028;-78
2023/05/25 10:47:54;;;;;;;14.63;3.75;;;;;;;;;;5064861;28;20032;-78
2023/05/25 10:50:25;;;;;;;13.57;3.10;;;;;;;;;;5063539;28;20481;-77
2023/05/25 10:53:01;;;;;;;14.32;3.42;;;;;;;;;;5063569;28;20021;-76
2023/05/25 10:55:30;;;;;;;15.13;3.65;;;;;;;;;;5062715;28;20035;-77
2023/05/25 10:58:15;;;;;;;12.68;3.22;;;;;;;;;;5063368;28;20029;-76
2023/05/25 11:00:41;;;;;;;13.18;3.25;;;;;;;;;;5061660;28;20121;-77
2023/05/25 11:03:06;;;;;;;10.38;3.33;;;;;;;;;;5063005;28;20119;-78
2023/05/25 11:05:33;;;;;;;14.00;3.38;;;;;;;;;;5063271;28;20540;-77
2023/05/25 11:07:59;;;;;;;14.73;3.60;;;;;;;;;;5061121;28;20080;-78
2023/05/25 11:10:49;;;;;;;15.30;3.20;;;;;;;;;;5062402;28;20117;-78
2023/05/25 11:13:33;;;;;;;16.63;3.58;;;;;;;;;;5061605;28;20496;-77
2023/05/25 11:16:11;;;;;;;9.80;2.92;;;;;;;;;;5062535;28;20059;-76
2023/05/25 11:18:36;;;;;;;9.38;3.00;;;;;;;;;;5062236;28;20033;-77
2023/05/25 11:21:13;;;;;;;11.18;2.50;;;;;;;;;;5062960;28;20104;-77
2023/05/25 11:23:58;;;;;;;13.60;3.13;;;;;;;;;;5040659;28;20042;-77
2023/05/25 11:26:27;;;;;;;13.23;3.28;;;;;;;;;;4960735;28;20501;-77
2023/05/25 11:28:53;;;;;;;9.38;2.55;;;;;;;;;;4961012;28;20031;-76
2023/05/25 11:31:22;;;;;;;14.68;2.90;;;;;;;;;;4961729;28;20475;-79
2023/05/25 11:33:47;;;;;;;10.88;2.50;;;;;;;;;;4959176;28;20035;-78
2023/05/25 11:36:14;;;;;;;11.65;3.08;;;;;;;;;;4960285;28;20041;-80
2023/05/25 11:38:44;;;;;;;12.15;3.00;;;;;;;;;;5010554;28;20078;-77
2023/05/25 11:41:15;;;;;;;11.43;2.60;;;;;;;;;;4969406;28;20594;-78
2023/05/25 11:43:42;;;;;;;11.57;2.90;;;;;;;;;;4925153;28;20173;-79
2023/05/25 11:46:11;;;;;;;11.88;2.97;;;;;;;;;;4941979;28;20027;-78
2023/05/25 11:48:41;;;;;;;11.43;3.25;;;;;;;;;;4941622;28;20027;-79
2023/05/25 11:51:06;;;;;;;13.55;3.20;;;;;;;;;;4942729;28;20059;-77
2023/05/25 11:53:32;;;;;;;14.27;3.33;;;;;;;;;;4924652;28;20043;-77
2023/05/25 11:55:57;;;;;;;14.45;3.78;;;;;;;;;;4940715;28;20043;-73
2023/05/25 11:58:22;;;;;;;13.65;3.72;;;;;;;;;;4942202;28;20031;-77
2023/05/25 12:00:48;;;;;;;13.70;3.67;;;;;;;;;;4941273;28;21079;-80
2023/05/25 12:03:30;;;;;;;16.77;4.00;;;;;;;;;;4941972;28;20046;-78
2023/05/25 12:05:55;;;;;;;15.25;3.80;;;;;;;;;;4939599;28;20093;-77
2023/05/25 12:08:30;;;;;;;19.30;4.10;;;;;;;;;;4940293;28;20480;-76
2023/05/25 12:10:58;;;;;;;14.52;3.67;;;;;;;;;;4942234;28;20055;-77
2023/05/25 12:13:23;;;;;;;16.60;4.32;;;;;;;;;;4941120;28;20031;-77
2023/05/25 12:15:49;;;;;;;15.05;3.97;;;;;;;;;;4941116;28;20161;-80
2023/05/25 12:18:14;;;;;;;17.30;4.03;;;;;;;;;;4942249;28;20028;-79
2023/05/25 12:20:40;;;;;;;16.40;3.78;;;;;;;;;;4940279;28;20035;-77
2023/05/25 12:23:07;;;;;;;16.73;3.80;;;;;;;;;;4941892;28;20038;-77
2023/05/25 12:25:33;;;;;;;15.18;3.83;;;;;;;;;;4940577;28;20032;-71
2023/05/25 12:28:13;;;;;;;14.27;3.95;;;;;;;;;;4938566;28;20038;-70
2023/05/25 12:30:39;;;;;;;20.83;4.40;;;;;;;;;;4940604;28;20117;-70
2023/05/25 12:33:04;;;;;;;19.63;3.65;;;;;;;;;;4941034;28;20131;-70
2023/05/25 12:35:30;;;;;;;14.85;3.83;;;;;;;;;;4939734;28;20051;-70
2023/05/25 12:38:12;;;;;;;18.77;4.40;;;;;;;;;;5001219;28;20024;-69
2023/05/25 12:40:37;;;;;;;13.57;3.55;;;;;;;;;;5059581;28;20027;-71
2023/05/25 12:43:05;;;;;;;14.73;3.70;;;;;;;;;;5060920;28;20630;-69
2023/05/25 12:45:30;;;;;;;13.63;3.78;;;;;;;;;;5059468;28;20021;-69
2023/05/25 12:47:56;;;;;;;16.83;4.18;;;;;;;;;;5059881;28;20389;-70
2023/05/25 12:50:21;;;;;;;21.60;4.07;;;;;;;;;;5082078;28;20032;-71
2023/05/25 12:52:47;;;;;;;22.25;4.65;;;;;;;;;;5061167;28;20519;-70
2023/05/25 12:55:21;;;;;;;20.65;4.43;;;;;;;;;;5060655;28;20531;-70
2023/05/25 12:57:51;;;;;;;18.58;4.18;;;;;;;;;;5058962;28;20032;-70
2023/05/25 13:00:17;;;;;;;17.30;4.03;;;;;;;;;;5059631;28;20485;-70
2023/05/25 13:02:43;;;;;;;15.88;4.15;;;;;;;;;;5060283;28;20059;-70
2023/05/25 13:05:21;;;;;;;17.50;3.95;;;;;;;;;;5058770;28;20025;-70
2023/05/25 13:07:47;;;;;;;18.30;4.22;;;;;;;;;;5060898;28;20024;-69
2023/05/25 13:10:13;;;;;;;17.83;4.15;;;;;;;;;;5058937;28;20044;-70
2023/05/25 13:12:39;;;;;;;19.70;4.55;;;;;;;;;;5060126;28;20115;-71
2023/05/25 13:15:04;;;;;;;15.10;4.05;;;;;;;;;;5059304;28;20024;-70
2023/05/25 13:17:30;;;;;;;20.95;4.45;;;;;;;;;;5041788;28;20077;-68
2023/05/25 13:19:55;;;;;;;15.52;3.95;;;;;;;;;;5059318;28;20293;-69
2023/05/25 13:22:20;;;;;;;17.80;4.20;;;;;;;;;;5060583;28;20092;-70
2023/05/25 13:24:48;;;;;;;14.88;4.28;;;;;;;;;;5058415;28;20017;-70
2023/05/25 13:27:13;;;;;;;12.82;3.83;;;;;;;;;;4989706;28;20027;-69
2023/05/25 13:29:39;;;;;;;16.75;4.28;;;;;;;;;;4955115;28;20039;-70
2023/05/25 13:32:04;;;;;;;18.88;4.03;;;;;;;;;;4962504;28;20055;-71
2023/05/25 13:34:30;;;;;;;17.92;4.43;;;;;;;;;;4961199;28;20372;-71
2023/05/25 13:36:58;;;;;;;16.05;3.92;;;;;;;;;;4971551;28;20043;-72
2023/05/25 13:39:23;;;;;;;18.30;3.65;;;;;;;;;;5062434;28;20214;-71
2023/05/25 13:41:53;;;;;;;16.02;3.80;;;;;;;;;;5063067;28;20025;-69
2023/05/25 13:44:19;;;;;;;18.33;4.28;;;;;;;;;;5064215;28;20020;-70
2023/05/25 13:46:44;;;;;;;15.85;4.03;;;;;;;;;;5062825;28;20078;-71
2023/05/25 13:49:10;;;;;;;14.18;3.58;;;;;;;;;;5063137;28;20074;-70
2023/05/25 13:51:37;;;;;;;14.23;3.97;;;;;;;;;;5061396;28;20021;-70
2023/05/25 13:54:02;;;;;;;13.88;3.97;;;;;;;;;;5061183;28;20029;-70
2023/05/25 13:56:27;;;;;;;13.90;4.07;;;;;;;;;;5063518;28;20389;-71
2023/05/25 13:58:53;;;;;;;15.15;4.03;;;;;;;;;;5062590;28;20070;-70
2023/05/25 14:01:18;;;;;;;15.48;4.35;;;;;;;;;;5045519;28;20464;-69
2023/05/25 14:03:44;;;;;;;17.27;4.10;;;;;;;;;;5064374;28;20020;-69
2023/05/25 14:06:09;;;;;;;16.25;4.57;;;;;;;;;;5095490;28;20033;-70
2023/05/25 14:08:35;;;;;;;17.17;4.10;;;;;;;;;;5061991;28;20130;-71
2023/05/25 14:11:00;;;;;;;19.67;4.20;;;;;;;;;;5061817;28;20078;-70
2023/05/25 14:13:25;;;;;;;17.95;4.20;;;;;;;;;;5094701;28;20208;-70
2023/05/25 14:15:51;;;;;;;17.50;4.35;;;;;;;;;;5063708;28;20025;-71
2023/05/25 14:18:16;;;;;;;14.98;3.45;;;;;;;;;;5063510;28;20025;-70
2023/05/25 14:20:41;;;;;;;14.68;4.70;;;;;;;;;;5063620;28;20112;-69
2023/05/25 14:23:07;;;;;;;17.83;4.35;;;;;;;;;;5063947;28;20056;-70
2023/05/25 14:25:32;;;;;;;16.55;4.28;;;;;;;;;;5096274;28;20547;-70